KTIW/TIW METAR and TAF weather

Enter ICAO airport designator
Station Type Date Time Source
KTIW METAR 2019/04/20 21:53 UTC NOAA

KTIW 202153Z 00000KT 10SM OVC026 12/06 A3007 RMK AO2 SLP184 T01170056


Station Type Date Time Source
KTIW Decoded METAR 2019/04/20 21:53 UTC NOAA

Tacoma, Tacoma Narrows Airport, WA, United States (KTIW) 47-16-03N 122-34-34W 96M
Apr 20, 2019 - 05:53 PM EDT / 2019.04.20 2153 UTC
Wind: Calm:0
Visibility: 10 mile(s):0
Sky conditions: overcast
Temperature: 53.1 F (11.7 C)
Dew Point: 42.1 F (5.6 C)
Relative Humidity: 66%
Pressure (altimeter): 30.07 in. Hg (1018 hPa)
ob: KTIW 202153Z 00000KT 10SM OVC026 12/06 A3007 RMK AO2 SLP184 T01170056
cycle: 22

Station Type Date Time Source
KTIW TAF UTC NOAA

Error!

Example: see airport list